• Join FlightAware (Why Join?)
  • Login
  • US Flag 
11:17PM EDT


 

Airport Tracker/Info


-or-


 

Live Flight TrackerFlight Track Log ✈ N918FA ✈ 26-Aug-2013 ✈ KCGS - KPHN

Flight Track Log - Related Links

Times and Time Zones

All times are in EDT time to prevent confusion due to time zone crossing. See the N918FA flight status page for this flight to view local times or setup timezone preferences in your user account.

Time Position Orientation Groundspeed Altitude Reporting Facility
EDT Latitude Longitude Course Direction KTS MPH feet Rate Location/Type
08:40PM 39.0000 -76.9333 322° Northwest 71 82 600  Level Potomac TRACON
08:41PM 39.0167 -76.9500 322° Northwest 87 100 1,200 600 Climbing Potomac TRACON
08:42PM 39.0500 -76.9333 21° North 90 104 1,800 600 Climbing Potomac TRACON
08:43PM 39.0667 -76.9333 360° North 78 90 2,400 540 Climbing Potomac TRACON
08:44PM 39.0833 -76.9500 322° Northwest 78 90 2,900 480 Climbing Potomac TRACON
08:45PM 39.1000 -76.9500 360° North 78 90 3,400 480 Climbing Potomac TRACON
08:46PM 39.1333 -76.9500 360° North 70 81 3,900 480 Climbing Potomac TRACON
08:47PM 39.1500 -76.9500 360° North 69 79 4,400 480 Climbing Potomac TRACON
08:48PM 39.1500 -76.9667 270° West 62 71 4,900 240 Climbing Potomac TRACON
08:49PM 39.1667 -76.9833 322° Northwest 84 97 4,900  Level Potomac TRACON
08:50PM 39.2000 -77.0000 339° North 89 102 4,900  Level Potomac TRACON
08:51PM 39.2167 -77.0333 303° West 89 102 4,900  Level Potomac TRACON
08:52PM 39.2333 -77.0500 322° Northwest 90 104 4,900  Level Potomac TRACON
08:53PM 39.2500 -77.0667 322° Northwest 92 106 5,000 120 Climbing Potomac TRACON
08:54PM 39.2667 -77.0833 322° Northwest 86 99 5,200 180 Climbing Potomac TRACON
08:55PM 39.2833 -77.1167 303° West 83 96 5,400 60 Climbing Potomac TRACON
08:56PM 39.2833 -77.1333 270° West 85 98 5,400  Level Potomac TRACON
08:57PM 39.3000 -77.1500 322° Northwest 86 99 5,500  Climbing Potomac TRACON
08:58PM 39.3167 -77.1833 303° West 86 99 5,500  Level Potomac TRACON
08:59PM 39.3333 -77.2000 322° Northwest 92 106 5,600 180 Climbing Potomac TRACON
09:00PM 39.3500 -77.2333 303° West 88 101 5,900 120 Climbing Potomac TRACON
09:01PM 39.3500 -77.2667 270° West 89 102 5,900  Level Potomac TRACON
09:02PM 39.3500 -77.3000 270° West 97 112 5,900  Level Potomac TRACON
09:03PM 39.3500 -77.3333 270° West 101 116 5,900  Level Potomac TRACON
09:04PM 39.3500 -77.3667 270° West 100 115 5,900  Level Potomac TRACON
09:05PM 39.3500 -77.4000 270° West 101 116 5,900  Level Potomac TRACON
09:06PM 39.3667 -77.4333 303° West 101 116 5,900  Level Potomac TRACON
09:08PM 39.3631 -77.5056 266° West 109 125 5,900  Level Washington Center
09:09PM 39.3644 -77.5406 273° West 109 125 5,900  Level Washington Center
09:10PM 39.3661 -77.5728 274° West 103 119 5,900  Level Washington Center
09:11PM 39.3697 -77.6078 278° West 103 119 5,900  Level Washington Center
09:12PM 39.3711 -77.6428 273° West 103 119 5,900  Level Washington Center
09:13PM 39.3728 -77.6775 274° West 103 119 5,900  Level Washington Center
09:14PM 39.3742 -77.7097 273° West 103 119 5,900  Level Washington Center
09:15PM 39.3756 -77.7422 273° West 103 119 5,900  Level Washington Center
09:16PM 39.3792 -77.7744 278° West 103 119 5,900  Level Washington Center
09:17PM 39.3786 -77.8094 269° West 103 119 5,900  Level Washington Center
09:18PM 39.3822 -77.8417 278° West 103 119 5,900  Level Washington Center
09:19PM 39.3983 -77.8664 310° West 98 113 5,900  Level Washington Center
09:20PM 39.4167 -77.8858 321° Northwest 93 107 6,000  Climbing Washington Center
09:21PM 39.4372 -77.9053 324° Northwest 88 101 5,900 -60 Descending Washington Center
09:22PM 39.4578 -77.9272 321° Northwest 93 107 5,900  Level Washington Center
09:23PM 39.4800 -77.9522 319° Northwest 93 107 5,900  Level Washington Center
09:24PM 39.4986 -77.9717 321° Northwest 93 107 6,000  Climbing Washington Center
09:25PM 39.5189 -77.9939 320° Northwest 93 107 5,900 -60 Descending Washington Center
09:26PM 39.5392 -78.0161 320° Northwest 93 107 5,900  Level Washington Center
09:27PM 39.5597 -78.0356 324° Northwest 93 107 5,900  Level Washington Center
09:28PM 39.5803 -78.0550 324° Northwest 93 107 5,900  Level Washington Center
09:29PM 39.6028 -78.0775 322° Northwest 93 107 5,900  Level Washington Center
09:30PM 39.6208 -78.0997 317° Northwest 93 107 5,900  Level Washington Center
09:31PM 39.6414 -78.1192 324° Northwest 93 107 5,900  Level Washington Center
09:32PM 39.6597 -78.1414 317° Northwest 93 107 5,900  Level Washington Center
09:33PM 39.6822 -78.1611 326° Northwest 93 107 5,900  Level Washington Center
09:34PM 39.7006 -78.1833 317° Northwest 93 107 5,900  Level Washington Center
09:35PM 39.7208 -78.2031 323° Northwest 93 107 6,000  Climbing Washington Center
09:37PM 39.7533 -78.2392 320° Northwest 97 112 6,000  Level Cleveland Center
09:38PM 39.7703 -78.2603 316° Northwest 87 100 6,000  Level Cleveland Center
09:39PM 39.7917 -78.2783 327° Northwest 88 101 6,000  Level Cleveland Center
09:40PM 39.8108 -78.3022 316° Northwest 95 109 6,000  Level Cleveland Center
09:41PM 39.8300 -78.3203 324° Northwest 83 96 6,000  Level Cleveland Center
09:42PM 39.8469 -78.3414 316° Northwest 87 100 6,000  Level Cleveland Center
09:43PM 39.8703 -78.3622 326° Northwest 95 109 6,000  Level Cleveland Center
09:44PM 39.8853 -78.3808 316° Northwest 81 93 6,000  Level Cleveland Center
09:45PM 39.9067 -78.4044 320° Northwest 85 98 6,000  Level Cleveland Center
09:46PM 39.9278 -78.4228 326° Northwest 94 108 6,000  Level Cleveland Center
09:47PM 39.9428 -78.4411 317° Northwest 80 92 6,000  Level Cleveland Center
09:48PM 39.9578 -78.4597 316° Northwest 73 84 6,000  Level Cleveland Center
09:49PM 39.9769 -78.4781 324° Northwest 86 99 6,100  Climbing Cleveland Center
09:50PM 39.9981 -78.4992 323° Northwest 88 101 6,000 -60 Descending Cleveland Center
09:51PM 40.0150 -78.5175 320° Northwest 78 90 6,000  Level Cleveland Center
09:52PM 40.0322 -78.5358 321° Northwest 81 93 6,000  Level Cleveland Center
09:53PM 40.0511 -78.5569 319° Northwest 82 94 6,000  Level Cleveland Center
09:54PM 40.0661 -78.5703 326° Northwest 75 86 6,000  Level Cleveland Center
09:55PM 40.0831 -78.5886 320° Northwest 82 94 6,100  Climbing Cleveland Center
09:56PM 40.1022 -78.6072 323° Northwest 86 99 6,000 -60 Descending Cleveland Center
09:57PM 40.1192 -78.6283 316° Northwest 71 82 6,000  Level Cleveland Center
09:58PM 40.1342 -78.6469 317° Northwest 77 89 6,000  Level Cleveland Center
09:59PM 40.1553 -78.6681 323° Northwest 93 107 6,000  Level Cleveland Center
10:01PM 40.1850 -78.6969 323° Northwest 53 61 6,000  Level Cleveland Center
10:02PM 40.1978 -78.7131 316° Northwest 70 81 6,000  Level Cleveland Center
10:03PM 40.2147 -78.7317 320° Northwest 83 96 6,000  Level Cleveland Center
10:04PM 40.2317 -78.7500 320° Northwest 76 87 6,000  Level Cleveland Center
10:05PM 40.2467 -78.7661 321° Northwest 71 82 6,000  Level Cleveland Center
10:06PM 40.2656 -78.7872 320° Northwest 82 94 6,000  Level Cleveland Center
10:07PM 40.2847 -78.8058 323° Northwest 85 98 6,000  Level Cleveland Center
10:08PM 40.3017 -78.8244 320° Northwest 80 92 6,000  Level Cleveland Center
10:09PM 40.3144 -78.8378 321° Northwest 80 92 6,000  Level Cleveland Center
10:10PM 40.3314 -78.8617 313° West 69 79 6,000  Level Cleveland Center
10:11PM 40.3381 -78.8917 286° West 77 89 6,000  Level Cleveland Center
10:12PM 40.3447 -78.9186 288° West 85 98 6,000  Level Cleveland Center
10:13PM 40.3536 -78.9511 290° West 94 108 6,000  Level Cleveland Center
10:14PM 40.3581 -78.9783 282° West 84 97 6,000  Level Cleveland Center
10:15PM 40.3647 -79.0025 290° West 71 82 6,100  Climbing Cleveland Center
10:16PM 40.3736 -79.0350 290° West 82 94 6,000 -60 Descending Cleveland Center
10:17PM 40.3822 -79.0622 293° West 90 104 6,000  Level Cleveland Center
10:18PM 40.3911 -79.0947 290° West 84 97 6,000  Level Cleveland Center
10:19PM 40.3978 -79.1244 286° West 83 96 6,000  Level Cleveland Center
10:20PM 40.4064 -79.1544 291° West 88 101 6,000  Level Cleveland Center
10:21PM 40.4150 -79.1842 291° West 87 100 6,000  Level Cleveland Center
10:22PM 40.4239 -79.2167 290° West 87 100 6,000  Level Cleveland Center
10:23PM 40.4325 -79.2467 291° West 88 101 6,000  Level Cleveland Center
10:24PM 40.4392 -79.2792 285° West 88 101 6,000  Level Cleveland Center
10:25PM 40.4478 -79.3064 293° West 89 102 6,100  Climbing Cleveland Center
10:26PM 40.4544 -79.3389 285° West 90 104 6,000  Descending Cleveland Center
10:27PM 40.4611 -79.3714 285° West 88 101 6,100 -60 Climbing Cleveland Center
10:29PM 40.4814 -79.3976 315° West  Level FlightAware Approximate
10:36PM 40.6011 -79.5529 315° West  Level FlightAware Approximate
10:37PM 40.6181 -79.5751 315° West  Level FlightAware Approximate
10:38PM 40.6352 -79.5974 315° West  Level FlightAware Approximate
10:39PM 40.6546 -79.6249 306° West  Level FlightAware Approximate
10:40PM 40.6688 -79.6504 306° West  Level FlightAware Approximate
10:41PM 40.6830 -79.6759 306° West  Level FlightAware Approximate
10:42PM 40.6973 -79.7014 306° West  Level FlightAware Approximate
10:43PM 40.7115 -79.7270 306° West  Level FlightAware Approximate
10:44PM 40.7257 -79.7525 306° West  Level FlightAware Approximate
10:45PM 40.7399 -79.7781 306° West  Level FlightAware Approximate
10:46PM 40.7541 -79.8036 306° West  Level FlightAware Approximate
10:47PM 40.7682 -79.8292 306° West  Level FlightAware Approximate
10:48PM 40.7824 -79.8548 306° West  Level FlightAware Approximate
10:49PM 40.7966 -79.8804 306° West  Level FlightAware Approximate
10:50PM 40.8108 -79.9060 306° West  Level FlightAware Approximate
10:51PM 40.8250 -79.9316 306° West  Level FlightAware Approximate
10:52PM 40.8392 -79.9572 306° West  Level FlightAware Approximate
10:53PM 40.8535 -79.9827 306° West  Level FlightAware Approximate
10:54PM 40.8677 -80.0083 306° West  Level FlightAware Approximate
10:55PM 40.8820 -80.0339 306° West  Level FlightAware Approximate
10:56PM 40.8962 -80.0594 306° West  Level FlightAware Approximate
10:57PM 40.9104 -80.0851 306° West  Level FlightAware Approximate
10:58PM 40.9246 -80.1107 306° West  Level FlightAware Approximate
10:59PM 40.9388 -80.1363 306° West  Level FlightAware Approximate
11:00PM 40.9530 -80.1619 306° West  Level FlightAware Approximate
11:01PM 40.9672 -80.1876 306° West  Level FlightAware Approximate
11:02PM 40.9814 -80.2132 306° West  Level FlightAware Approximate
11:03PM 40.9957 -80.2388 306° West  Level FlightAware Approximate
11:04PM 41.0100 -80.2644 306° West  Level FlightAware Approximate
11:05PM 41.0242 -80.2900 306° West  Level FlightAware Approximate
11:06PM 41.0385 -80.3156 306° West  Level FlightAware Approximate
11:07PM 41.0527 -80.3413 306° West  Level FlightAware Approximate
11:08PM 41.0670 -80.3669 306° West  Level FlightAware Approximate
11:09PM 41.0812 -80.3925 306° West  Level FlightAware Approximate
11:10PM 41.0955 -80.4182 306° West  Level FlightAware Approximate
11:11PM 41.1097 -80.4439 306° West  Level FlightAware Approximate
11:12PM 41.1239 -80.4696 306° West  Level FlightAware Approximate
11:13PM 41.1382 -80.4952 306° West  Level FlightAware Approximate
11:14PM 41.1523 -80.5210 305° West  Level FlightAware Approximate
11:15PM 41.1662 -80.5470 305° West  Level FlightAware Approximate
11:16PM 41.1801 -80.5730 305° West  Level FlightAware Approximate
11:17PM 41.1941 -80.5990 305° West  Level FlightAware Approximate
11:18PM 41.2080 -80.6250 305° West  Level FlightAware Approximate
11:19PM 41.2219 -80.6510 305° West  Level FlightAware Approximate
11:20PM 41.2357 -80.6771 305° West  Level FlightAware Approximate
11:21PM 41.2496 -80.7032 305° West  Level FlightAware Approximate
11:22PM 41.2635 -80.7292 305° West  Level FlightAware Approximate
11:23PM 41.2774 -80.7553 305° West  Level FlightAware Approximate
11:24PM 41.2912 -80.7814 305° West  Level FlightAware Approximate
11:25PM 41.3051 -80.8075 305° West  Level FlightAware Approximate
11:26PM 41.3190 -80.8336 305° West  Level FlightAware Approximate
11:27PM 41.3328 -80.8597 305° West  Level FlightAware Approximate
11:28PM 41.3467 -80.8859 305° West  Level FlightAware Approximate
11:28PM 41.3614 -80.8653 305° West 91 105 5,900  Level Cleveland Center
11:29PM 41.3605 -80.9120 305° West  Level FlightAware Approximate
11:29PM 41.3800 -80.8847 322° Northwest 90 104 5,900  Level Cleveland Center
11:30PM 41.3743 -80.9382 305° West  Level FlightAware Approximate
11:30PM 41.3989 -80.9069 319° Northwest 89 102 5,900  Level Cleveland Center
11:31PM 41.3882 -80.9643 305° West  Level FlightAware Approximate
11:31PM 41.4194 -80.9236 329° Northwest 89 102 5,900  Level Cleveland Center
11:32PM 41.4020 -80.9905 305° West  Level FlightAware Approximate
11:32PM 41.4425 -80.9489 321° Northwest 95 109 5,900  Level Cleveland Center
11:33PM 41.4158 -81.0167 305° West  Level FlightAware Approximate
11:33PM 41.4631 -80.9683 325° Northwest 94 108 5,900  Level Cleveland Center
11:34PM 41.4296 -81.0429 305° West  Level FlightAware Approximate
11:34PM 41.4819 -80.9906 319° Northwest 93 107 5,900  Level Cleveland Center
11:35PM 41.4986 -81.0100 319° Northwest 92 106 5,900  Level Cleveland Center
11:36PM 41.5192 -81.0297 324° Northwest 90 104 5,900  Level Cleveland Center
11:37PM 41.5381 -81.0519 319° Northwest 93 107 5,900 -60 Level Cleveland Center
11:38PM 41.5567 -81.0742 318° Northwest 91 105 5,800 -540 Descending Cleveland Center
11:39PM 41.5711 -81.0856 329° Northwest 96 110 5,100 -1,020 Descending Cleveland Center
11:40PM 41.5897 -81.1078 318° Northwest 96 110 4,200 -600 Descending Cleveland Center
11:41PM 41.6064 -81.1275 319° Northwest 76 87 3,900 -180 Descending Cleveland Center
11:42PM 41.6250 -81.1414 331° Northwest 76 87 3,900  Level Cleveland Center
11:43PM 41.6333 -81.1500 322° Northwest 81 93 3,900  Level Cleveland Center
11:44PM 41.6519 -81.1694 322° Northwest 83 96 3,900  Level Cleveland Center
11:45PM 41.6708 -81.1892 322° Northwest 86 99 3,900  Level Cleveland Center
11:46PM 41.6894 -81.2089 322° Northwest 84 97 3,900  Level Cleveland Center
11:47PM 41.7081 -81.2283 322° Northwest 85 98 3,900  Level Cleveland Center
11:48PM 41.7286 -81.2508 321° Northwest 87 100 3,900  Level Cleveland Center
11:49PM 41.7494 -81.2733 321° Northwest 88 101 3,900  Level Cleveland Center
11:50PM 41.7700 -81.2958 321° Northwest 89 102 3,900  Level Cleveland Center
11:51PM 41.7889 -81.3156 322° Northwest 86 99 3,900  Level Cleveland Center
11:52PM 41.8094 -81.3353 324° Northwest 81 93 4,000  Climbing Cleveland Center
11:53PM 41.8239 -81.3578 311° West 81 93 3,900 -60 Descending Cleveland Center
11:54PM 41.8425 -81.3747 326° Northwest 81 93 3,900  Level Cleveland Center
11:55PM 41.8633 -81.3944 325° Northwest 81 93 3,900  Level Cleveland Center
11:56PM 41.8819 -81.4142 322° Northwest 81 93 3,900  Level Cleveland Center
11:57PM 41.9025 -81.4342 324° Northwest 81 93 3,900  Level Cleveland Center
11:58PM 41.9192 -81.4567 315° West 81 93 3,900  Level Cleveland Center
11:59PM 41.9378 -81.4764 322° Northwest 81 93 4,000  Climbing Cleveland Center
12:00AM 41.9564 -81.4961 322° Northwest 82 94 3,900 -60 Descending Cleveland Center
12:01AM 41.9750 -81.5161 321° Northwest 82 94 3,900  Level Cleveland Center
12:02AM 41.9936 -81.5331 326° Northwest 82 94 3,900  Level Cleveland Center
12:03AM 42.0100 -81.5500 322° Northwest 82 94 3,900  Level Cleveland Center
12:04AM 42.0286 -81.5700 321° Northwest 82 94 3,900  Level Cleveland Center
12:05AM 42.0453 -81.5897 319° Northwest 77 89 3,900  Level Cleveland Center
12:06AM 42.0639 -81.6067 326° Northwest 82 94 3,900  Level Cleveland Center
12:07AM 42.0822 -81.6294 317° Northwest 82 94 3,900  Level Cleveland Center
12:08AM 42.1008 -81.6494 321° Northwest 82 94 3,900  Level Cleveland Center
12:09AM 42.1217 -81.6722 321° Northwest 82 94 3,900  Level Cleveland Center
12:10AM 42.1422 -81.6919 325° Northwest 82 94 3,900  Level Cleveland Center
12:11AM 42.1628 -81.7178 317° Northwest 87 100 3,900  Level Cleveland Center
12:12AM 42.1814 -81.7375 322° Northwest 87 100 3,900  Level Cleveland Center
12:13AM 42.2042 -81.7606 323° Northwest 87 100 3,900  Level Cleveland Center
12:14AM 42.2247 -81.7806 324° Northwest 87 100 3,900  Level Cleveland Center
12:15AM 42.2453 -81.8061 317° Northwest 92 106 3,900  Level Cleveland Center
12:16AM 42.2658 -81.8261 324° Northwest 92 106 4,000  Climbing Cleveland Center
12:17AM 42.2886 -81.8461 327° Northwest 92 106 3,900 -60 Descending Cleveland Center
12:18AM 42.3069 -81.8719 314° West 92 106 3,900  Level Cleveland Center
12:19AM 42.3278 -81.8947 321° Northwest 92 106 3,900  Level Cleveland Center
12:20AM 42.3483 -81.9147 324° Northwest 97 112 4,000  Climbing Cleveland Center
12:21AM 42.3689 -81.9378 320° Northwest 97 112 3,900 -60 Descending Cleveland Center
12:22AM 42.3872 -81.9606 317° Northwest 92 106 3,900  Level Cleveland Center
12:23AM 42.4078 -81.9836 320° Northwest 92 106 3,900  Level Cleveland Center
12:24AM 42.4306 -82.0067 323° Northwest 92 106 4,000  Climbing Cleveland Center
12:25AM 42.4489 -82.0294 317° Northwest 92 106 4,000  Level Cleveland Center
12:26AM 42.4717 -82.0497 327° Northwest 97 112 4,000  Level Cleveland Center
12:27AM 42.4942 -82.0756 320° Northwest 97 112 4,000 -60 Level Cleveland Center
12:28AM 42.5147 -82.1014 317° Northwest 102 117 3,900 -60 Descending Cleveland Center
12:29AM 42.5375 -82.1189 330° Northwest 102 117 3,900  Level Cleveland Center
12:30AM 42.5600 -82.1506 314° West 108 124 4,000  Climbing Cleveland Center
12:31AM 42.5850 -82.1594 345° North 103 119 3,900  Descending Cleveland Center
12:32AM 42.6033 -82.1853 314° West 98 113 4,000  Climbing Cleveland Center
12:33AM 42.6217 -82.2056 321° Northwest 98 113 4,000  Level Cleveland Center